sensor_id;sensor_type;location;lat;lon;timestamp;pressure;altitude;pressure_sealevel;temperature;humidity
76858;BME280;65830;0.000;0.000;2023-11-19T00:00:25;99510.91;;;6.25;58.69
76858;BME280;65830;0.000;0.000;2023-11-19T00:02:50;99510.09;;;6.25;58.74
76858;BME280;65830;0.000;0.000;2023-11-19T00:05:16;99505.66;;;6.25;58.94
76858;BME280;65830;0.000;0.000;2023-11-19T00:07:42;99512.00;;;6.23;58.80
76858;BME280;65830;0.000;0.000;2023-11-19T00:10:11;99512.00;;;6.23;59.02
76858;BME280;65830;0.000;0.000;2023-11-19T00:12:38;99520.00;;;6.21;59.27
76858;BME280;65830;0.000;0.000;2023-11-19T00:15:05;99524.31;;;6.22;59.08
76858;BME280;65830;0.000;0.000;2023-11-19T00:17:31;99511.03;;;6.24;59.18
76858;BME280;65830;0.000;0.000;2023-11-19T00:19:56;99507.56;;;6.23;59.53
76858;BME280;65830;0.000;0.000;2023-11-19T00:22:22;99503.38;;;6.21;59.61
76858;BME280;65830;0.000;0.000;2023-11-19T00:24:48;99506.22;;;6.18;59.87
76858;BME280;65830;0.000;0.000;2023-11-19T00:27:13;99510.66;;;6.17;60.27
76858;BME280;65830;0.000;0.000;2023-11-19T00:29:40;99516.66;;;6.19;59.84
76858;BME280;65830;0.000;0.000;2023-11-19T00:32:06;99517.59;;;6.18;60.05
76858;BME280;65830;0.000;0.000;2023-11-19T00:34:32;99520.94;;;6.20;60.11
76858;BME280;65830;0.000;0.000;2023-11-19T00:36:58;99525.28;;;6.21;59.88
76858;BME280;65830;0.000;0.000;2023-11-19T00:39:23;99525.03;;;6.24;59.71
76858;BME280;65830;0.000;0.000;2023-11-19T00:41:49;99527.66;;;6.24;59.66
76858;BME280;65830;0.000;0.000;2023-11-19T00:44:15;99538.94;;;6.26;59.29
76858;BME280;65830;0.000;0.000;2023-11-19T00:46:40;99535.47;;;6.26;59.16
76858;BME280;65830;0.000;0.000;2023-11-19T00:49:06;99531.16;;;6.25;59.32
76858;BME280;65830;0.000;0.000;2023-11-19T00:51:31;99539.91;;;6.25;59.19
76858;BME280;65830;0.000;0.000;2023-11-19T00:53:57;99538.09;;;6.26;59.35
76858;BME280;65830;0.000;0.000;2023-11-19T00:56:23;99520.47;;;6.15;59.32
76858;BME280;65830;0.000;0.000;2023-11-19T00:58:49;99542.53;;;6.25;59.82
76858;BME280;65830;0.000;0.000;2023-11-19T01:01:14;99543.38;;;6.26;59.63
76858;BME280;65830;0.000;0.000;2023-11-19T01:03:40;99559.19;;;6.26;59.60
76858;BME280;65830;0.000;0.000;2023-11-19T01:06:06;99556.66;;;6.24;59.95
76858;BME280;65830;0.000;0.000;2023-11-19T01:08:31;99540.84;;;6.24;60.04
76858;BME280;65830;0.000;0.000;2023-11-19T01:10:57;99535.56;;;6.24;60.08
76858;BME280;65830;0.000;0.000;2023-11-19T01:13:22;99554.25;;;6.21;60.23
76858;BME280;65830;0.000;0.000;2023-11-19T01:15:48;99542.03;;;6.20;60.09
76858;BME280;65830;0.000;0.000;2023-11-19T01:18:14;99552.81;;;6.17;60.34
76858;BME280;65830;0.000;0.000;2023-11-19T01:20:39;99554.63;;;6.16;60.75
76858;BME280;65830;0.000;0.000;2023-11-19T01:23:05;99558.28;;;6.14;60.71
76858;BME280;65830;0.000;0.000;2023-11-19T01:25:30;99543.22;;;6.16;60.76
76858;BME280;65830;0.000;0.000;2023-11-19T01:27:56;99558.19;;;6.15;60.75
76858;BME280;65830;0.000;0.000;2023-11-19T01:30:24;99546.72;;;6.16;60.46
76858;BME280;65830;0.000;0.000;2023-11-19T01:32:51;99559.03;;;6.16;60.63
76858;BME280;65830;0.000;0.000;2023-11-19T01:35:16;99560.94;;;6.14;60.80
76858;BME280;65830;0.000;0.000;2023-11-19T01:37:42;99564.28;;;6.16;60.82
76858;BME280;65830;0.000;0.000;2023-11-19T01:40:07;99547.75;;;6.14;60.85
76858;BME280;65830;0.000;0.000;2023-11-19T01:42:39;99551.34;;;6.13;61.04
76858;BME280;65830;0.000;0.000;2023-11-19T01:45:05;99543.56;;;6.11;61.00
76858;BME280;65830;0.000;0.000;2023-11-19T01:47:34;99551.56;;;6.10;61.01
76858;BME280;65830;0.000;0.000;2023-11-19T01:50:01;99545.38;;;6.11;61.07
76858;BME280;65830;0.000;0.000;2023-11-19T01:52:27;99551.34;;;6.13;61.25
76858;BME280;65830;0.000;0.000;2023-11-19T01:54:53;99540.19;;;6.09;61.09
76858;BME280;65830;0.000;0.000;2023-11-19T01:57:19;99537.66;;;6.08;60.95
76858;BME280;65830;0.000;0.000;2023-11-19T01:59:46;99560.19;;;6.12;61.13
76858;BME280;65830;0.000;0.000;2023-11-19T02:02:12;99548.94;;;6.10;60.95
76858;BME280;65830;0.000;0.000;2023-11-19T02:04:38;99573.63;;;6.09;61.01
76858;BME280;65830;0.000;0.000;2023-11-19T02:07:03;99562.84;;;6.12;61.05
76858;BME280;65830;0.000;0.000;2023-11-19T02:09:29;99566.19;;;6.14;60.94
76858;BME280;65830;0.000;0.000;2023-11-19T02:11:55;99568.81;;;6.14;61.02
76858;BME280;65830;0.000;0.000;2023-11-19T02:14:25;99566.44;;;6.11;60.94
76858;BME280;65830;0.000;0.000;2023-11-19T02:16:52;99546.91;;;6.13;61.02
76858;BME280;65830;0.000;0.000;2023-11-19T02:19:20;99559.38;;;6.11;60.72
76858;BME280;65830;0.000;0.000;2023-11-19T02:21:46;99543.56;;;6.11;60.63
76858;BME280;65830;0.000;0.000;2023-11-19T02:24:12;99545.38;;;6.11;60.94
76858;BME280;65830;0.000;0.000;2023-11-19T02:26:40;99565.47;;;6.12;60.85
76858;BME280;65830;0.000;0.000;2023-11-19T02:29:09;99584.16;;;6.09;61.15
76858;BME280;65830;0.000;0.000;2023-11-19T02:31:35;99586.06;;;6.07;61.27
76858;BME280;65830;0.000;0.000;2023-11-19T02:34:01;99593.97;;;6.07;61.16
76858;BME280;65830;0.000;0.000;2023-11-19T02:36:27;99594.06;;;6.05;61.39
76858;BME280;65830;0.000;0.000;2023-11-19T02:38:53;99589.63;;;6.06;60.82
76858;BME280;65830;0.000;0.000;2023-11-19T02:41:18;99580.53;;;6.10;60.83
76858;BME280;65830;0.000;0.000;2023-11-19T02:43:44;99575.91;;;6.13;60.08
76858;BME280;65830;0.000;0.000;2023-11-19T02:46:10;99589.91;;;6.14;60.18
76858;BME280;65830;0.000;0.000;2023-11-19T02:48:36;99584.63;;;6.14;60.12
76858;BME280;65830;0.000;0.000;2023-11-19T02:51:04;99593.25;;;6.16;59.93
76858;BME280;65830;0.000;0.000;2023-11-19T02:53:30;99582.88;;;6.14;59.91
76858;BME280;65830;0.000;0.000;2023-11-19T02:55:56;99586.34;;;6.15;60.12
76858;BME280;65830;0.000;0.000;2023-11-19T02:58:27;99582.88;;;6.14;59.82
76858;BME280;65830;0.000;0.000;2023-11-19T03:00:54;99574.81;;;6.16;59.47
76858;BME280;65830;0.000;0.000;2023-11-19T03:03:25;99573.88;;;6.17;59.66
76858;BME280;65830;0.000;0.000;2023-11-19T03:05:56;99579.88;;;6.19;59.11
76858;BME280;65830;0.000;0.000;2023-11-19T03:08:22;99579.16;;;6.17;59.39
76858;BME280;65830;0.000;0.000;2023-11-19T03:10:48;99567.28;;;6.11;59.93
76858;BME280;65830;0.000;0.000;2023-11-19T03:13:14;99576.00;;;6.12;59.45
76858;BME280;65830;0.000;0.000;2023-11-19T03:15:40;99566.19;;;6.14;59.36
76858;BME280;65830;0.000;0.000;2023-11-19T03:18:05;99570.84;;;6.10;59.63
76858;BME280;65830;0.000;0.000;2023-11-19T03:20:31;99542.84;;;6.09;60.10
76858;BME280;65830;0.000;0.000;2023-11-19T03:22:57;99557.19;;;6.05;59.79
76858;BME280;65830;0.000;0.000;2023-11-19T03:25:27;99562.44;;;6.05;59.83
76858;BME280;65830;0.000;0.000;2023-11-19T03:27:58;99580.38;;;6.00;60.30
76858;BME280;65830;0.000;0.000;2023-11-19T03:30:24;99572.59;;;5.99;60.81
76858;BME280;65830;0.000;0.000;2023-11-19T03:32:50;99561.44;;;5.95;60.94
76858;BME280;65830;0.000;0.000;2023-11-19T03:35:15;99565.22;;;5.91;61.28
76858;BME280;65830;0.000;0.000;2023-11-19T03:37:41;99551.44;;;5.87;61.94
76858;BME280;65830;0.000;0.000;2023-11-19T03:40:06;99572.22;;;5.79;62.34
76858;BME280;65830;0.000;0.000;2023-11-19T03:42:32;99564.78;;;5.73;62.75
76858;BME280;65830;0.000;0.000;2023-11-19T03:44:58;99563.81;;;5.74;62.31
76858;BME280;65830;0.000;0.000;2023-11-19T03:47:24;99562.13;;;5.73;62.81
76858;BME280;65830;0.000;0.000;2023-11-19T03:49:50;99559.59;;;5.71;62.56
76858;BME280;65830;0.000;0.000;2023-11-19T03:52:16;99551.59;;;5.73;62.49
76858;BME280;65830;0.000;0.000;2023-11-19T03:54:42;99562.13;;;5.73;62.11
76858;BME280;65830;0.000;0.000;2023-11-19T03:57:08;99563.91;;;5.72;62.10
76858;BME280;65830;0.000;0.000;2023-11-19T03:59:35;99582.22;;;5.74;61.99
76858;BME280;65830;0.000;0.000;2023-11-19T04:02:01;99571.69;;;5.74;61.73
76858;BME280;65830;0.000;0.000;2023-11-19T04:04:27;99577.59;;;5.77;61.69
76858;BME280;65830;0.000;0.000;2023-11-19T04:06:54;99580.63;;;5.84;60.23
76858;BME280;65830;0.000;0.000;2023-11-19T04:09:20;99586.50;;;5.88;60.31
76858;BME280;65830;0.000;0.000;2023-11-19T04:11:45;99582.94;;;5.89;60.20
76858;BME280;65830;0.000;0.000;2023-11-19T04:14:12;99602.31;;;5.88;59.91
76858;BME280;65830;0.000;0.000;2023-11-19T04:16:38;99620.84;;;5.86;59.93
76858;BME280;65830;0.000;0.000;2023-11-19T04:19:04;99612.84;;;5.88;59.72
76858;BME280;65830;0.000;0.000;2023-11-19T04:21:30;99609.13;;;5.90;59.51
76858;BME280;65830;0.000;0.000;2023-11-19T04:23:57;99614.97;;;5.95;59.17
76858;BME280;65830;0.000;0.000;2023-11-19T04:26:22;99598.09;;;5.98;58.84
76858;BME280;65830;0.000;0.000;2023-11-19T04:28:48;99622.66;;;5.99;58.98
76858;BME280;65830;0.000;0.000;2023-11-19T04:31:15;99594.72;;;5.96;58.81
76858;BME280;65830;0.000;0.000;2023-11-19T04:33:41;99604.59;;;5.92;59.05
76858;BME280;65830;0.000;0.000;2023-11-19T04:36:07;99618.84;;;5.90;58.67
76858;BME280;65830;0.000;0.000;2023-11-19T04:38:33;99595.56;;;5.84;59.05
76858;BME280;65830;0.000;0.000;2023-11-19T04:40:58;99621.28;;;5.80;59.59
76858;BME280;65830;0.000;0.000;2023-11-19T04:43:24;99618.56;;;5.69;60.56
76858;BME280;65830;0.000;0.000;2023-11-19T04:45:49;99607.53;;;5.64;61.09
76858;BME280;65830;0.000;0.000;2023-11-19T04:48:15;99614.91;;;5.58;61.63
76858;BME280;65830;0.000;0.000;2023-11-19T04:50:40;99602.91;;;5.54;62.03
76858;BME280;65830;0.000;0.000;2023-11-19T04:53:06;99609.38;;;5.37;62.74
76858;BME280;65830;0.000;0.000;2023-11-19T04:55:31;99615.56;;;5.36;62.63
76858;BME280;65830;0.000;0.000;2023-11-19T04:57:57;99607.03;;;5.33;62.53
76858;BME280;65830;0.000;0.000;2023-11-19T05:00:22;99613.78;;;5.37;62.50
76858;BME280;65830;0.000;0.000;2023-11-19T05:02:48;99608.75;;;5.34;62.68
76858;BME280;65830;0.000;0.000;2023-11-19T05:05:15;99607.28;;;5.30;62.43
76858;BME280;65830;0.000;0.000;2023-11-19T05:07:40;99605.56;;;5.29;62.12
76858;BME280;65830;0.000;0.000;2023-11-19T05:10:06;99611.91;;;5.26;62.26
76858;BME280;65830;0.000;0.000;2023-11-19T05:12:32;99611.91;;;5.26;62.15
76858;BME280;65830;0.000;0.000;2023-11-19T05:14:57;99610.34;;;5.24;62.11
76858;BME280;65830;0.000;0.000;2023-11-19T05:17:23;99607.69;;;5.24;61.97
76858;BME280;65830;0.000;0.000;2023-11-19T05:19:49;99631.28;;;5.25;61.51
76858;BME280;65830;0.000;0.000;2023-11-19T05:22:14;99624.31;;;5.24;61.68
76858;BME280;65830;0.000;0.000;2023-11-19T05:24:40;99633.47;;;5.18;62.25
76858;BME280;65830;0.000;0.000;2023-11-19T05:27:06;99634.44;;;5.17;62.16
76858;BME280;65830;0.000;0.000;2023-11-19T05:29:33;99638.00;;;5.16;62.30
76858;BME280;65830;0.000;0.000;2023-11-19T05:31:58;99636.09;;;5.18;61.76
76858;BME280;65830;0.000;0.000;2023-11-19T05:34:24;99637.47;;;5.24;61.58
76858;BME280;65830;0.000;0.000;2023-11-19T05:36:50;99636.09;;;5.18;61.60
76858;BME280;65830;0.000;0.000;2023-11-19T05:39:16;99646.09;;;5.13;61.80
76858;BME280;65830;0.000;0.000;2023-11-19T05:41:42;99646.22;;;5.12;62.08
76858;BME280;65830;0.000;0.000;2023-11-19T05:44:07;99662.91;;;5.11;62.58
76858;BME280;65830;0.000;0.000;2023-11-19T05:46:33;99662.00;;;5.12;62.02
76858;BME280;65830;0.000;0.000;2023-11-19T05:48:58;99664.28;;;5.16;62.28
76858;BME280;65830;0.000;0.000;2023-11-19T05:51:24;99661.25;;;5.23;62.53
76858;BME280;65830;0.000;0.000;2023-11-19T05:53:50;99646.41;;;5.47;61.73
76858;BME280;65830;0.000;0.000;2023-11-19T05:56:15;99656.50;;;5.53;62.23
76858;BME280;65830;0.000;0.000;2023-11-19T05:58:46;99659.03;;;5.55;61.50
76858;BME280;65830;0.000;0.000;2023-11-19T06:01:13;99661.13;;;5.63;60.80
76858;BME280;65830;0.000;0.000;2023-11-19T06:03:39;99668.06;;;5.64;60.46
76858;BME280;65830;0.000;0.000;2023-11-19T06:06:04;99644.28;;;5.65;60.37
76858;BME280;65830;0.000;0.000;2023-11-19T06:08:30;99650.78;;;5.72;59.88
76858;BME280;65830;0.000;0.000;2023-11-19T06:10:56;99655.41;;;5.69;60.41
76858;BME280;65830;0.000;0.000;2023-11-19T06:13:22;99667.53;;;5.58;60.75
76858;BME280;65830;0.000;0.000;2023-11-19T06:15:49;99677.97;;;5.60;60.31
76858;BME280;65830;0.000;0.000;2023-11-19T06:18:16;99669.75;;;5.65;60.66
76858;BME280;65830;0.000;0.000;2023-11-19T06:20:41;99677.53;;;5.66;60.35
76858;BME280;65830;0.000;0.000;2023-11-19T06:23:07;99691.88;;;5.75;60.03
76858;BME280;65830;0.000;0.000;2023-11-19T06:25:32;99685.53;;;5.77;60.32
76858;BME280;65830;0.000;0.000;2023-11-19T06:28:00;99683.19;;;5.86;59.68
76858;BME280;65830;0.000;0.000;2023-11-19T06:30:26;99677.19;;;5.96;59.36
76858;BME280;65830;0.000;0.000;2023-11-19T06:32:53;99686.69;;;5.99;59.40
76858;BME280;65830;0.000;0.000;2023-11-19T06:35:19;99689.72;;;6.06;59.02
76858;BME280;65830;0.000;0.000;2023-11-19T06:37:44;99707.81;;;6.10;58.73
76858;BME280;65830;0.000;0.000;2023-11-19T06:40:10;99710.25;;;6.13;58.42
76858;BME280;65830;0.000;0.000;2023-11-19T06:42:37;99712.34;;;6.21;58.07
76858;BME280;65830;0.000;0.000;2023-11-19T06:45:03;99730.78;;;6.21;58.23
76858;BME280;65830;0.000;0.000;2023-11-19T06:47:30;99697.25;;;6.23;57.88
76858;BME280;65830;0.000;0.000;2023-11-19T06:49:55;99716.53;;;6.24;57.80
76858;BME280;65830;0.000;0.000;2023-11-19T06:52:21;99707.56;;;6.26;57.55
76858;BME280;65830;0.000;0.000;2023-11-19T06:54:47;99705.84;;;6.38;57.60
76858;BME280;65830;0.000;0.000;2023-11-19T06:57:12;99708.28;;;6.41;57.38
76858;BME280;65830;0.000;0.000;2023-11-19T06:59:38;99712.91;;;6.38;57.43
76858;BME280;65830;0.000;0.000;2023-11-19T07:02:04;99709.84;;;6.44;57.58
76858;BME280;65830;0.000;0.000;2023-11-19T07:04:32;99719.47;;;6.56;57.39
76858;BME280;65830;0.000;0.000;2023-11-19T07:07:01;99713.78;;;6.62;56.89
76858;BME280;65830;0.000;0.000;2023-11-19T07:09:26;99710.91;;;6.65;56.93
76858;BME280;65830;0.000;0.000;2023-11-19T07:11:52;99688.88;;;6.66;56.70
76858;BME280;65830;0.000;0.000;2023-11-19T07:14:18;99671.59;;;6.62;56.52
76858;BME280;65830;0.000;0.000;2023-11-19T07:16:43;99668.44;;;6.57;56.92
76858;BME280;65830;0.000;0.000;2023-11-19T07:19:09;99686.97;;;6.68;56.45
76858;BME280;65830;0.000;0.000;2023-11-19T07:21:34;99687.19;;;6.65;56.44
76858;BME280;65830;0.000;0.000;2023-11-19T07:24:00;99695.63;;;6.82;56.47
76858;BME280;65830;0.000;0.000;2023-11-19T07:26:26;99721.44;;;6.89;56.47
76858;BME280;65830;0.000;0.000;2023-11-19T07:28:52;99732.72;;;6.91;55.63
76858;BME280;65830;0.000;0.000;2023-11-19T07:31:17;99763.88;;;6.86;55.47
76858;BME280;65830;0.000;0.000;2023-11-19T07:33:45;99769.91;;;7.00;55.27
76858;BME280;65830;0.000;0.000;2023-11-19T07:36:11;99773.91;;;7.05;55.08
76858;BME280;65830;0.000;0.000;2023-11-19T07:38:37;99746.72;;;7.16;54.46
76858;BME280;65830;0.000;0.000;2023-11-19T07:41:04;99744.81;;;7.18;53.75
76858;BME280;65830;0.000;0.000;2023-11-19T07:43:30;99750.66;;;7.10;53.56
76858;BME280;65830;0.000;0.000;2023-11-19T07:45:56;99753.19;;;7.12;53.51
76858;BME280;65830;0.000;0.000;2023-11-19T07:48:24;99756.72;;;7.00;53.71
76858;BME280;65830;0.000;0.000;2023-11-19T07:50:49;99754.59;;;7.05;53.80
76858;BME280;65830;0.000;0.000;2023-11-19T07:53:18;99766.38;;;7.12;53.80
76858;BME280;65830;0.000;0.000;2023-11-19T07:55:44;99769.88;;;7.12;53.15
76858;BME280;65830;0.000;0.000;2023-11-19T07:58:12;99778.72;;;7.11;53.37
76858;BME280;65830;0.000;0.000;2023-11-19T08:00:38;99804.28;;;7.11;53.17
76858;BME280;65830;0.000;0.000;2023-11-19T08:03:04;99807.88;;;7.10;53.14
76858;BME280;65830;0.000;0.000;2023-11-19T08:05:30;99768.53;;;7.07;53.05
76858;BME280;65830;0.000;0.000;2023-11-19T08:07:56;99777.28;;;7.07;53.21
76858;BME280;65830;0.000;0.000;2023-11-19T08:10:21;99779.44;;;7.13;53.31
76858;BME280;65830;0.000;0.000;2023-11-19T08:12:47;99785.25;;;7.19;53.03
76858;BME280;65830;0.000;0.000;2023-11-19T08:15:13;99787.78;;;7.20;52.68
76858;BME280;65830;0.000;0.000;2023-11-19T08:17:40;99814.00;;;7.10;52.72
76858;BME280;65830;0.000;0.000;2023-11-19T08:20:05;99808.06;;;7.20;52.79
76858;BME280;65830;0.000;0.000;2023-11-19T08:22:36;99798.31;;;7.20;52.58
76858;BME280;65830;0.000;0.000;2023-11-19T08:25:02;99812.72;;;7.16;52.46
76858;BME280;65830;0.000;0.000;2023-11-19T08:27:28;99812.34;;;7.21;52.54
76858;BME280;65830;0.000;0.000;2023-11-19T08:29:53;99833.25;;;7.24;52.35
76858;BME280;65830;0.000;0.000;2023-11-19T08:32:20;99811.41;;;7.22;52.31
76858;BME280;65830;0.000;0.000;2023-11-19T08:34:46;99807.84;;;7.34;52.38
76858;BME280;65830;0.000;0.000;2023-11-19T08:37:11;99810.75;;;7.42;52.26
76858;BME280;65830;0.000;0.000;2023-11-19T08:39:38;99818.31;;;7.47;52.20
76858;BME280;65830;0.000;0.000;2023-11-19T08:42:04;99829.75;;;7.59;51.96
76858;BME280;65830;0.000;0.000;2023-11-19T08:44:29;99821.50;;;7.63;51.84
76858;BME280;65830;0.000;0.000;2023-11-19T08:46:55;99821.31;;;7.42;52.08
76858;BME280;65830;0.000;0.000;2023-11-19T08:49:20;99818.06;;;7.39;52.14
76858;BME280;65830;0.000;0.000;2023-11-19T08:51:46;99836.19;;;7.43;51.98
76858;BME280;65830;0.000;0.000;2023-11-19T08:54:12;99828.41;;;7.53;52.23
76858;BME280;65830;0.000;0.000;2023-11-19T08:56:38;99832.13;;;7.50;51.71
76858;BME280;65830;0.000;0.000;2023-11-19T08:59:04;99825.63;;;7.43;51.60
76858;BME280;65830;0.000;0.000;2023-11-19T09:01:30;99834.72;;;7.28;51.98
76858;BME280;65830;0.000;0.000;2023-11-19T09:03:55;99839.47;;;7.23;52.00
76858;BME280;65830;0.000;0.000;2023-11-19T09:06:21;99831.81;;;7.31;51.74
76858;BME280;65830;0.000;0.000;2023-11-19T09:08:47;99826.53;;;7.31;51.28
76858;BME280;65830;0.000;0.000;2023-11-19T09:11:12;99815.78;;;7.34;51.00
76858;BME280;65830;0.000;0.000;2023-11-19T09:13:38;99804.50;;;7.43;50.78
76858;BME280;65830;0.000;0.000;2023-11-19T09:16:04;99796.72;;;7.42;50.77
76858;BME280;65830;0.000;0.000;2023-11-19T09:18:30;99788.53;;;7.33;50.34
76858;BME280;65830;0.000;0.000;2023-11-19T09:20:55;99797.50;;;7.31;50.34
76858;BME280;65830;0.000;0.000;2023-11-19T09:23:21;99784.09;;;7.34;50.67
76858;BME280;65830;0.000;0.000;2023-11-19T09:25:46;99800.09;;;7.55;50.58
76858;BME280;65830;0.000;0.000;2023-11-19T09:28:12;99801.28;;;7.40;50.31
76858;BME280;65830;0.000;0.000;2023-11-19T09:30:39;99809.31;;;7.38;50.20
76858;BME280;65830;0.000;0.000;2023-11-19T09:33:05;99829.03;;;7.45;50.42
76858;BME280;65830;0.000;0.000;2023-11-19T09:35:31;99812.47;;;7.54;50.22
76858;BME280;65830;0.000;0.000;2023-11-19T09:37:56;99822.41;;;7.51;49.97
76858;BME280;65830;0.000;0.000;2023-11-19T09:40:22;99816.44;;;7.60;50.08
76858;BME280;65830;0.000;0.000;2023-11-19T09:42:47;99816.50;;;7.71;49.94
76858;BME280;65830;0.000;0.000;2023-11-19T09:45:14;99822.59;;;7.72;49.77
76858;BME280;65830;0.000;0.000;2023-11-19T09:47:44;99835.56;;;7.64;49.59
76858;BME280;65830;0.000;0.000;2023-11-19T09:50:16;99818.88;;;7.74;49.55
76858;BME280;65830;0.000;0.000;2023-11-19T09:52:44;99827.00;;;7.60;49.31
76858;BME280;65830;0.000;0.000;2023-11-19T09:55:10;99819.19;;;7.59;49.36
76858;BME280;65830;0.000;0.000;2023-11-19T09:57:35;99812.41;;;7.67;49.55
76858;BME280;65830;0.000;0.000;2023-11-19T10:00:03;99811.09;;;7.84;49.29
76858;BME280;65830;0.000;0.000;2023-11-19T10:02:34;99816.13;;;7.76;49.27
76858;BME280;65830;0.000;0.000;2023-11-19T10:05:04;99822.84;;;7.80;49.06
76858;BME280;65830;0.000;0.000;2023-11-19T10:07:31;99822.63;;;7.83;49.10
76858;BME280;65830;0.000;0.000;2023-11-19T10:09:59;99817.31;;;7.72;49.18
76858;BME280;65830;0.000;0.000;2023-11-19T10:12:26;99807.69;;;7.71;49.62
76858;BME280;65830;0.000;0.000;2023-11-19T10:14:51;99810.16;;;7.85;49.35
76858;BME280;65830;0.000;0.000;2023-11-19T10:17:19;99781.94;;;7.86;48.90
76858;BME280;65830;0.000;0.000;2023-11-19T10:19:44;99800.06;;;7.79;49.30
76858;BME280;65830;0.000;0.000;2023-11-19T10:22:10;99791.66;;;7.85;49.18
76858;BME280;65830;0.000;0.000;2023-11-19T10:24:35;99772.69;;;7.91;49.19
76858;BME280;65830;0.000;0.000;2023-11-19T10:27:07;99780.13;;;7.98;49.02
76858;BME280;65830;0.000;0.000;2023-11-19T10:29:36;99780.38;;;8.06;48.39
76858;BME280;65830;0.000;0.000;2023-11-19T10:32:01;99790.22;;;8.04;48.83
76858;BME280;65830;0.000;0.000;2023-11-19T10:34:27;99780.13;;;7.98;48.82
76858;BME280;65830;0.000;0.000;2023-11-19T10:36:52;99760.06;;;8.06;48.66
76858;BME280;65830;0.000;0.000;2023-11-19T10:39:18;99757.81;;;8.13;48.40
76858;BME280;65830;0.000;0.000;2023-11-19T10:41:44;99756.81;;;8.14;48.11
76858;BME280;65830;0.000;0.000;2023-11-19T10:44:09;99760.19;;;8.16;47.94
76858;BME280;65830;0.000;0.000;2023-11-19T10:46:39;99761.63;;;8.20;48.23
76858;BME280;65830;0.000;0.000;2023-11-19T10:49:05;99755.50;;;8.31;47.91
76858;BME280;65830;0.000;0.000;2023-11-19T10:51:31;99769.06;;;8.38;47.67
76858;BME280;65830;0.000;0.000;2023-11-19T10:53:58;99765.47;;;8.27;47.75
76858;BME280;65830;0.000;0.000;2023-11-19T10:56:26;99755.91;;;8.70;47.63
76858;BME280;65830;0.000;0.000;2023-11-19T10:58:55;99753.47;;;8.89;46.56
76858;BME280;65830;0.000;0.000;2023-11-19T11:01:24;99775.91;;;9.06;45.90
76858;BME280;65830;0.000;0.000;2023-11-19T11:03:52;99740.09;;;8.91;45.55
76858;BME280;65830;0.000;0.000;2023-11-19T11:06:19;99751.66;;;9.22;45.04
76858;BME280;65830;0.000;0.000;2023-11-19T11:08:46;99756.94;;;9.22;44.47
76858;BME280;65830;0.000;0.000;2023-11-19T11:11:11;99749.94;;;9.21;44.76
76858;BME280;65830;0.000;0.000;2023-11-19T11:13:39;99757.41;;;9.48;44.29
76858;BME280;65830;0.000;0.000;2023-11-19T11:16:06;99753.28;;;9.86;44.12
76858;BME280;65830;0.000;0.000;2023-11-19T11:18:33;99755.50;;;9.81;43.67
76858;BME280;65830;0.000;0.000;2023-11-19T11:21:00;99753.63;;;9.93;43.53
76858;BME280;65830;0.000;0.000;2023-11-19T11:28:27;99738.09;;;10.69;41.86
76858;BME280;65830;0.000;0.000;2023-11-19T11:31:07;99725.66;;;11.09;40.74
76858;BME280;65830;0.000;0.000;2023-11-19T11:38:58;99700.50;;;11.03;40.69
76858;BME280;65830;0.000;0.000;2023-11-19T11:41:25;99704.56;;;11.07;40.37
76858;BME280;65830;0.000;0.000;2023-11-19T11:43:52;99691.16;;;10.99;40.64
76858;BME280;65830;0.000;0.000;2023-11-19T11:48:57;99683.91;;;10.91;40.29
76858;BME280;65830;0.000;0.000;2023-11-19T11:59:53;99659.53;;;10.28;41.37
76858;BME280;65830;0.000;0.000;2023-11-19T12:02:21;99666.44;;;10.69;40.66
76858;BME280;65830;0.000;0.000;2023-11-19T12:04:50;99655.25;;;10.56;40.78
76858;BME280;65830;0.000;0.000;2023-11-19T12:07:23;99651.22;;;10.71;40.38
76858;BME280;65830;0.000;0.000;2023-11-19T12:09:53;99653.88;;;10.91;40.52
76858;BME280;65830;0.000;0.000;2023-11-19T12:12:21;99645.19;;;10.99;40.24
76858;BME280;65830;0.000;0.000;2023-11-19T12:20:00;99668.16;;;10.20;42.02
76858;BME280;65830;0.000;0.000;2023-11-19T12:22:25;99664.66;;;10.10;42.35
76858;BME280;65830;0.000;0.000;2023-11-19T12:24:51;99656.72;;;10.20;42.50
76858;BME280;65830;0.000;0.000;2023-11-19T12:27:17;99651.50;;;10.59;42.04
76858;BME280;65830;0.000;0.000;2023-11-19T12:29:43;99663.00;;;10.28;42.70
76858;BME280;65830;0.000;0.000;2023-11-19T12:32:09;99654.59;;;10.04;42.91
76858;BME280;65830;0.000;0.000;2023-11-19T12:34:35;99652.66;;;10.16;42.77
76858;BME280;65830;0.000;0.000;2023-11-19T12:37:03;99655.16;;;10.07;43.18
76858;BME280;65830;0.000;0.000;2023-11-19T12:39:32;99640.25;;;10.16;43.21
76858;BME280;65830;0.000;0.000;2023-11-19T12:41:57;99629.50;;;10.08;43.57
76858;BME280;65830;0.000;0.000;2023-11-19T12:44:24;99632.94;;;10.49;42.59
76858;BME280;65830;0.000;0.000;2023-11-19T12:47:08;99635.13;;;10.34;42.94
76858;BME280;65830;0.000;0.000;2023-11-19T12:49:36;99636.41;;;10.59;42.18
76858;BME280;65830;0.000;0.000;2023-11-19T12:52:02;99637.94;;;10.81;42.05
76858;BME280;65830;0.000;0.000;2023-11-19T12:54:31;99654.81;;;10.90;41.59
76858;BME280;65830;0.000;0.000;2023-11-19T12:56:57;99629.84;;;10.44;42.31
76858;BME280;65830;0.000;0.000;2023-11-19T12:59:22;99642.84;;;10.57;42.28
76858;BME280;65830;0.000;0.000;2023-11-19T13:01:57;99637.81;;;10.73;42.10
76858;BME280;65830;0.000;0.000;2023-11-19T13:04:23;99639.00;;;11.08;41.47
76858;BME280;65830;0.000;0.000;2023-11-19T13:06:52;99646.16;;;10.88;41.58
76858;BME280;65830;0.000;0.000;2023-11-19T13:09:25;99637.50;;;10.96;41.33
76858;BME280;65830;0.000;0.000;2023-11-19T13:11:51;99642.25;;;10.92;41.85
76858;BME280;65830;0.000;0.000;2023-11-19T13:14:17;99635.81;;;11.14;41.16
76858;BME280;65830;0.000;0.000;2023-11-19T13:16:44;99622.56;;;11.04;41.22
76858;BME280;65830;0.000;0.000;2023-11-19T13:19:11;99623.41;;;10.76;41.96
76858;BME280;65830;0.000;0.000;2023-11-19T13:21:37;99621.56;;;10.96;41.37
76858;BME280;65830;0.000;0.000;2023-11-19T13:24:07;99612.63;;;11.53;40.71
76858;BME280;65830;0.000;0.000;2023-11-19T13:26:33;99621.50;;;11.25;41.00
76858;BME280;65830;0.000;0.000;2023-11-19T13:28:58;99613.59;;;10.96;41.77
76858;BME280;65830;0.000;0.000;2023-11-19T13:31:24;99614.59;;;11.04;41.71
76858;BME280;65830;0.000;0.000;2023-11-19T13:33:50;99595.22;;;10.75;42.33
76858;BME280;65830;0.000;0.000;2023-11-19T13:36:16;99613.59;;;11.05;41.67
76858;BME280;65830;0.000;0.000;2023-11-19T13:38:42;99604.09;;;11.12;41.42
76858;BME280;65830;0.000;0.000;2023-11-19T13:41:09;99596.19;;;10.25;42.62